Time;durP1;ratioP1;P1;durP2;ratioP2;P2;SDS_P1;SDS_P2;PMS_P1;PMS_P2;Temp;Humidity;BMP_temperature;BMP_pressure;BME280_temperature;BME280_humidity;BME280_pressure;Samples;Min_cycle;Max_cycle;Signal;HPM_P1;HPM_P2
2023/04/04 00:01:05;;;;;;;;;;;;;;;20.77;35.64;103052.09;4965361;28;19914;-70
2023/04/04 00:03:31;;;;;;;;;;;;;;;20.74;35.62;103041.56;4968458;28;20006;-70
2023/04/04 00:05:56;;;;;;;;;;;;;;;20.73;35.54;103037.16;4965838;28;19918;-70
2023/04/04 00:08:22;;;;;;;;;;;;;;;20.70;35.53;103037.41;4966092;28;19936;-70
2023/04/04 00:10:47;;;;;;;;;;;;;;;20.68;35.45;103037.53;4970173;28;19921;-70
2023/04/04 00:13:12;;;;;;;;;;;;;;;20.66;35.81;103036.81;4961013;28;20339;-70
2023/04/04 00:15:37;;;;;;;;;;;;;;;20.64;35.66;103030.66;4973210;28;20418;-70
2023/04/04 00:18:03;;;;;;;;;;;;;;;20.63;35.83;103028.09;4965269;28;19920;-71
2023/04/04 00:20:29;;;;;;;;;;;;;;;20.60;35.81;103020.22;4963178;28;19978;-70
2023/04/04 00:22:54;;;;;;;;;;;;;;;20.58;35.56;103023.06;4970476;28;19930;-70
2023/04/04 00:25:19;;;;;;;;;;;;;;;20.57;35.86;103015.97;4961540;28;19918;-71
2023/04/04 00:27:46;;;;;;;;;;;;;;;20.55;35.45;103015.22;4962470;28;19913;-70
2023/04/04 00:30:11;;;;;;;;;;;;;;;20.53;35.51;103027.16;4962138;28;19953;-71
2023/04/04 00:32:36;;;;;;;;;;;;;;;20.51;35.51;103021.00;4964874;28;19914;-71
2023/04/04 00:35:02;;;;;;;;;;;;;;;20.50;35.65;103016.59;4968645;28;20280;-70
2023/04/04 00:37:27;;;;;;;;;;;;;;;20.49;35.61;103023.00;4965051;28;19926;-71
2023/04/04 00:39:52;;;;;;;;;;;;;;;20.45;35.71;103023.22;4965049;28;19925;-70
2023/04/04 00:42:18;;;;;;;;;;;;;;;20.45;35.76;103022.34;4971708;28;19922;-71
2023/04/04 00:44:43;;;;;;;;;;;;;;;20.42;35.75;103009.94;4971157;28;19965;-70
2023/04/04 00:47:08;;;;;;;;;;;;;;;20.42;35.48;103014.50;4965121;28;19922;-70
2023/04/04 00:49:33;;;;;;;;;;;;;;;20.38;35.76;103013.88;4972943;28;19958;-71
2023/04/04 00:51:58;;;;;;;;;;;;;;;20.37;35.81;103008.63;4964476;28;19925;-71
2023/04/04 00:54:24;;;;;;;;;;;;;;;20.35;35.65;103006.06;4961360;28;19923;-70
2023/04/04 00:56:53;;;;;;;;;;;;;;;20.33;35.81;103007.16;4968414;28;19918;-70
2023/04/04 00:59:20;;;;;;;;;;;;;;;20.31;35.55;103009.16;4974089;28;19942;-71
2023/04/04 01:01:45;;;;;;;;;;;;;;;20.30;35.70;103012.81;4966717;28;19921;-70
2023/04/04 01:04:11;;;;;;;;;;;;;;;20.27;35.57;103013.94;4971551;28;19918;-70
2023/04/04 01:06:36;;;;;;;;;;;;;;;20.26;35.57;103014.03;4969247;28;19957;-70
2023/04/04 01:09:01;;;;;;;;;;;;;;;20.23;35.63;103012.47;4958746;29;19914;-70
2023/04/04 01:11:27;;;;;;;;;;;;;;;20.21;35.59;103015.28;4974038;28;20385;-70
2023/04/04 01:13:52;;;;;;;;;;;;;;;20.19;35.85;103011.84;4960499;28;19914;-71
2023/04/04 01:16:17;;;;;;;;;;;;;;;20.17;35.66;103013.81;4981810;28;19921;-71
2023/04/04 01:18:42;;;;;;;;;;;;;;;20.16;35.71;103012.09;4960778;28;20392;-71
2023/04/04 01:21:09;;;;;;;;;;;;;;;20.14;35.64;103010.53;4949518;28;19915;-70
2023/04/04 01:23:44;;;;;;;;;;;;;;;20.12;35.64;103021.44;4966233;28;19922;-71
2023/04/04 01:26:09;;;;;;;;;;;;;;;20.11;35.88;103013.47;4970395;28;19926;-70
2023/04/04 01:28:35;;;;;;;;;;;;;;;20.10;35.63;103014.47;4962826;28;19915;-71
2023/04/04 01:31:01;;;;;;;;;;;;;;;20.07;35.86;103012.84;4972234;28;19914;-71
2023/04/04 01:33:37;;;;;;;;;;;;;;;20.04;35.93;103013.09;4969247;28;19965;-71
2023/04/04 01:36:10;;;;;;;;;;;;;;;20.04;35.96;103006.84;4969329;28;19921;-71
2023/04/04 01:38:48;;;;;;;;;;;;;;;20.02;35.69;103009.69;4973296;28;19918;-71
2023/04/04 01:41:13;;;;;;;;;;;;;;;19.99;36.02;103009.94;4957496;28;19918;-71
2023/04/04 01:43:38;;;;;;;;;;;;;;;19.98;35.73;103010.91;4967545;28;19942;-71
2023/04/04 01:46:04;;;;;;;;;;;;;;;19.95;36.02;103011.16;4967772;28;19915;-70
2023/04/04 01:48:29;;;;;;;;;;;;;;;19.93;35.98;103011.28;4962954;28;19914;-71
2023/04/04 01:50:55;;;;;;;;;;;;;;;19.92;36.04;103022.19;4968846;28;20648;-71
2023/04/04 01:53:21;;;;;;;;;;;;;;;19.90;36.03;103011.53;4971051;28;19961;-71
2023/04/04 01:55:46;;;;;;;;;;;;;;;19.89;35.84;103008.97;4969377;28;19914;-70
2023/04/04 01:58:11;;;;;;;;;;;;;;;19.87;35.80;103014.47;4972511;28;19918;-70
2023/04/04 02:00:36;;;;;;;;;;;;;;;19.85;35.89;103010.19;4968318;28;20560;-71
2023/04/04 02:03:01;;;;;;;;;;;;;;;19.83;35.80;103007.59;4959133;28;19910;-71
2023/04/04 02:05:27;;;;;;;;;;;;;;;19.81;35.95;103006.88;4976912;28;19945;-70
2023/04/04 02:07:52;;;;;;;;;;;;;;;19.80;36.04;103009.72;4956958;28;19962;-70
2023/04/04 02:10:17;;;;;;;;;;;;;;;19.78;36.11;103011.66;4969369;28;19910;-70
2023/04/04 02:12:42;;;;;;;;;;;;;;;19.75;36.05;103012.75;4964425;28;19918;-70
2023/04/04 02:15:08;;;;;;;;;;;;;;;19.73;36.10;103021.00;4967526;28;19921;-70
2023/04/04 02:17:34;;;;;;;;;;;;;;;19.72;36.18;103023.81;4971697;28;19940;-71
2023/04/04 02:19:59;;;;;;;;;;;;;;;19.70;35.93;103025.75;4966919;28;19925;-70
2023/04/04 02:22:24;;;;;;;;;;;;;;;19.68;35.90;103025.91;4963897;28;19918;-70
2023/04/04 02:24:49;;;;;;;;;;;;;;;19.66;36.09;103027.84;4966940;28;19918;-71
2023/04/04 02:27:15;;;;;;;;;;;;;;;19.64;36.17;103020.88;4972733;28;19917;-71
2023/04/04 02:29:40;;;;;;;;;;;;;;;19.63;36.22;103016.47;4958639;28;19981;-71
2023/04/04 02:32:05;;;;;;;;;;;;;;;19.60;36.23;103016.66;4966720;28;20311;-70
2023/04/04 02:34:31;;;;;;;;;;;;;;;19.58;36.00;103014.09;4964146;28;19914;-70
2023/04/04 02:36:56;;;;;;;;;;;;;;;19.57;36.31;103008.81;4965413;28;19925;-71
2023/04/04 02:39:21;;;;;;;;;;;;;;;19.56;36.12;103007.09;4968096;28;19926;-71
2023/04/04 02:41:47;;;;;;;;;;;;;;;19.54;36.12;103006.34;4964577;28;19914;-70
2023/04/04 02:44:12;;;;;;;;;;;;;;;19.53;36.22;102997.38;4971185;28;19918;-70
2023/04/04 02:46:37;;;;;;;;;;;;;;;19.51;36.01;103004.75;4964845;28;20327;-71
2023/04/04 02:49:03;;;;;;;;;;;;;;;19.49;36.08;103001.31;4968372;28;19925;-71
2023/04/04 02:51:28;;;;;;;;;;;;;;;19.47;36.01;102996.06;4964737;28;19914;-71
2023/04/04 02:53:53;;;;;;;;;;;;;;;19.46;36.08;102999.75;4967135;28;19971;-70
2023/04/04 02:56:18;;;;;;;;;;;;;;;19.44;36.12;102998.13;4954193;28;19915;-71
2023/04/04 02:58:43;;;;;;;;;;;;;;;19.42;36.16;102997.41;4965929;28;20188;-71
2023/04/04 03:01:09;;;;;;;;;;;;;;;19.41;36.00;102990.28;4965079;28;19925;-70
2023/04/04 03:03:34;;;;;;;;;;;;;;;19.39;36.12;102981.44;4959417;28;19928;-71
2023/04/04 03:05:59;;;;;;;;;;;;;;;19.36;36.08;102979.84;4973977;28;19920;-70
2023/04/04 03:08:25;;;;;;;;;;;;;;;19.35;36.16;102974.59;4960209;28;19918;-71
2023/04/04 03:10:50;;;;;;;;;;;;;;;19.34;36.29;102983.66;4969267;28;19914;-70
2023/04/04 03:13:15;;;;;;;;;;;;;;;19.31;36.10;102975.81;4969061;28;19915;-70
2023/04/04 03:15:40;;;;;;;;;;;;;;;19.30;36.42;102977.66;4965862;28;19918;-71
2023/04/04 03:18:06;;;;;;;;;;;;;;;19.28;36.13;102974.19;4968308;28;20275;-71
2023/04/04 03:20:31;;;;;;;;;;;;;;;19.27;36.16;102974.31;4965882;28;19961;-70
2023/04/04 03:22:57;;;;;;;;;;;;;;;19.25;36.30;102977.16;4960952;28;19937;-71
2023/04/04 03:25:22;;;;;;;;;;;;;;;19.25;36.27;102973.59;4962177;28;19922;-71
2023/04/04 03:27:47;;;;;;;;;;;;;;;19.21;36.10;102965.75;4964396;28;19914;-71
2023/04/04 03:30:13;;;;;;;;;;;;;;;19.19;36.29;102964.13;4959610;28;19914;-71
2023/04/04 03:32:38;;;;;;;;;;;;;;;19.18;36.16;102965.13;4964422;28;19915;-70
2023/04/04 03:35:04;;;;;;;;;;;;;;;19.17;36.17;102968.81;4963480;28;19938;-71
2023/04/04 03:37:29;;;;;;;;;;;;;;;19.15;36.15;102965.34;4966379;28;19929;-71
2023/04/04 03:39:54;;;;;;;;;;;;;;;19.13;36.18;102970.03;4968842;28;19918;-71
2023/04/04 03:42:20;;;;;;;;;;;;;;;19.12;36.23;102971.00;4963117;28;19914;-71
2023/04/04 03:44:45;;;;;;;;;;;;;;;19.11;36.18;102971.97;4967206;28;19922;-71
2023/04/04 03:47:11;;;;;;;;;;;;;;;19.10;36.32;102967.56;4967439;28;20057;-71
2023/04/04 03:49:36;;;;;;;;;;;;;;;19.09;36.34;102969.41;4968135;28;19914;-71
2023/04/04 03:52:02;;;;;;;;;;;;;;;19.08;36.33;102973.09;4963564;28;19965;-71
2023/04/04 03:54:27;;;;;;;;;;;;;;;19.08;36.41;102978.47;4976446;28;19924;-71
2023/04/04 03:56:53;;;;;;;;;;;;;;;19.08;36.18;102972.22;4961832;28;19919;-70
2023/04/04 03:59:18;;;;;;;;;;;;;;;19.08;36.22;102969.53;4970911;28;19914;-70
2023/04/04 04:01:43;;;;;;;;;;;;;;;19.06;36.23;102966.94;4962497;28;20359;-70
2023/04/04 04:04:08;;;;;;;;;;;;;;;19.06;36.22;102968.78;4962574;28;19923;-70
2023/04/04 04:06:33;;;;;;;;;;;;;;;19.06;36.13;102977.72;4964977;28;19923;-70
2023/04/04 04:09:00;;;;;;;;;;;;;;;19.06;36.17;102980.41;4957475;28;20512;-71
2023/04/04 04:11:25;;;;;;;;;;;;;;;19.06;36.36;102972.31;4962798;28;19932;-71
2023/04/04 04:13:50;;;;;;;;;;;;;;;19.06;36.19;102974.16;4964081;28;19973;-70
2023/04/04 04:16:16;;;;;;;;;;;;;;;19.05;35.95;102978.72;4965993;28;19964;-70
2023/04/04 04:18:41;;;;;;;;;;;;;;;19.06;36.32;102975.03;4963334;28;19929;-70
2023/04/04 04:21:06;;;;;;;;;;;;;;;19.06;36.00;102980.41;4974748;28;19982;-71
2023/04/04 04:23:31;;;;;;;;;;;;;;;19.07;36.23;102973.19;4965890;28;19918;-71
2023/04/04 04:25:56;;;;;;;;;;;;;;;19.06;36.15;102972.31;4966253;28;19969;-71
2023/04/04 04:28:25;;;;;;;;;;;;;;;19.06;35.91;102975.03;4964050;28;19942;-72
2023/04/04 04:30:50;;;;;;;;;;;;;;;19.05;35.90;102976.00;4955844;28;19950;-71
2023/04/04 04:33:15;;;;;;;;;;;;;;;19.07;36.21;102965.09;4973065;28;19976;-71
2023/04/04 04:35:40;;;;;;;;;;;;;;;19.06;36.06;102966.09;4969944;28;19997;-71
2023/04/04 04:38:06;;;;;;;;;;;;;;;19.08;36.20;102964.13;4964730;28;19914;-71
2023/04/04 04:40:32;;;;;;;;;;;;;;;19.08;35.84;102967.69;4968586;28;19915;-72
2023/04/04 04:42:57;;;;;;;;;;;;;;;19.10;35.98;102970.25;4964777;28;19968;-71
2023/04/04 04:45:23;;;;;;;;;;;;;;;19.10;36.05;102970.25;4959510;28;19918;-71
2023/04/04 04:47:48;;;;;;;;;;;;;;;19.11;36.40;102972.81;4963010;28;19914;-72
2023/04/04 04:50:13;;;;;;;;;;;;;;;19.14;36.56;102972.59;4960971;28;19915;-72
2023/04/04 04:52:39;;;;;;;;;;;;;;;19.17;36.48;102979.59;4960350;28;19953;-72
2023/04/04 04:55:04;;;;;;;;;;;;;;;19.20;36.47;102979.38;4966681;28;20008;-72
2023/04/04 04:57:29;;;;;;;;;;;;;;;19.22;36.69;102980.94;4955585;28;19915;-73
2023/04/04 04:59:54;;;;;;;;;;;;;;;19.25;36.49;102979.00;4959773;28;19926;-72
2023/04/04 05:02:20;;;;;;;;;;;;;;;19.26;36.70;102978.88;4961512;28;19962;-72
2023/04/04 05:04:45;;;;;;;;;;;;;;;19.28;36.44;102984.13;4960955;28;20316;-72
2023/04/04 05:07:11;;;;;;;;;;;;;;;19.29;36.68;102984.03;4967458;28;19918;-72
2023/04/04 05:09:36;;;;;;;;;;;;;;;19.32;36.65;102982.91;4963815;28;20005;-71
2023/04/04 05:12:04;;;;;;;;;;;;;;;19.32;36.84;102981.06;4963989;28;19974;-72
2023/04/04 05:14:30;;;;;;;;;;;;;;;19.36;36.80;102981.69;4951173;28;19915;-72
2023/04/04 05:16:55;;;;;;;;;;;;;;;19.37;36.53;102984.28;4966920;28;19921;-72
2023/04/04 05:19:22;;;;;;;;;;;;;;;19.39;36.72;102990.41;4958290;28;20004;-72
2023/04/04 05:21:47;;;;;;;;;;;;;;;19.41;36.24;102990.28;4970585;28;19947;-72
2023/04/04 05:24:13;;;;;;;;;;;;;;;19.43;36.54;102989.19;4965649;28;20044;-72
2023/04/04 05:26:38;;;;;;;;;;;;;;;19.45;36.42;102991.75;4964203;28;19963;-72
2023/04/04 05:29:03;;;;;;;;;;;;;;;19.47;36.34;102995.19;4972752;28;19910;-73
2023/04/04 05:31:28;;;;;;;;;;;;;;;19.47;36.49;102997.91;4961201;28;19919;-72
2023/04/04 05:33:55;;;;;;;;;;;;;;;19.49;36.27;102998.63;4972053;28;19964;-74
2023/04/04 05:36:20;;;;;;;;;;;;;;;19.49;36.39;102985.97;4974287;28;19951;-73
2023/04/04 05:38:45;;;;;;;;;;;;;;;19.50;36.22;102986.88;4969168;28;19911;-74
2023/04/04 05:41:11;;;;;;;;;;;;;;;19.52;36.22;102989.44;4968635;28;19917;-74
2023/04/04 05:43:36;;;;;;;;;;;;;;;19.55;36.36;102994.59;4967113;28;20061;-74
2023/04/04 05:46:01;;;;;;;;;;;;;;;19.55;36.34;102990.06;4964807;28;19914;-73
2023/04/04 05:48:26;;;;;;;;;;;;;;;19.57;36.43;102993.47;4966994;28;19914;-73
2023/04/04 05:50:51;;;;;;;;;;;;;;;19.59;36.50;103004.16;4966478;28;19910;-73
2023/04/04 05:53:17;;;;;;;;;;;;;;;19.60;36.17;102995.06;4970128;28;19914;-72
2023/04/04 05:55:42;;;;;;;;;;;;;;;19.62;36.40;103003.94;4973518;28;19910;-72
2023/04/04 05:58:07;;;;;;;;;;;;;;;19.62;36.01;102998.53;4961709;28;19914;-71
2023/04/04 06:00:32;;;;;;;;;;;;;;;19.63;36.01;103002.97;4969041;28;19922;-72
2023/04/04 06:02:58;;;;;;;;;;;;;;;19.64;36.09;103004.69;4970775;28;20767;-71
2023/04/04 06:05:23;;;;;;;;;;;;;;;19.63;35.96;103006.53;4964208;28;19922;-71
2023/04/04 06:07:49;;;;;;;;;;;;;;;19.64;35.88;102999.28;4952629;28;19914;-74
2023/04/04 06:10:14;;;;;;;;;;;;;;;19.65;36.31;103001.00;4966843;28;19911;-76
2023/04/04 06:12:39;;;;;;;;;;;;;;;19.68;36.76;103009.72;4965237;28;19915;-74
2023/04/04 06:15:05;;;;;;;;;;;;;;;19.76;37.29;102998.31;4967381;28;19918;-72
2023/04/04 06:17:30;;;;;;;;;;;;;;;19.82;38.56;103005.03;4971218;28;19942;-72
2023/04/04 06:19:55;;;;;;;;;;;;;;;19.87;42.03;103006.38;4956882;28;19915;-72
2023/04/04 06:22:21;;;;;;;;;;;;;;;19.90;42.90;103003.44;4977762;28;19921;-72
2023/04/04 06:24:46;;;;;;;;;;;;;;;19.91;42.45;103006.97;4964722;28;19970;-73
2023/04/04 06:27:11;;;;;;;;;;;;;;;19.89;42.25;103001.72;4971385;28;20363;-71
2023/04/04 06:29:36;;;;;;;;;;;;;;;19.90;41.70;103006.13;4976912;28;19971;-71
2023/04/04 06:32:04;;;;;;;;;;;;;;;19.90;41.17;103006.13;4962118;28;20318;-72
2023/04/04 06:34:29;;;;;;;;;;;;;;;19.91;40.99;103010.53;4970980;28;20237;-70
2023/04/04 06:36:54;;;;;;;;;;;;;;;19.91;40.90;103002.44;4966992;28;20384;-71
2023/04/04 06:39:19;;;;;;;;;;;;;;;19.90;40.53;103008.84;4966762;28;19994;-71
2023/04/04 06:41:45;;;;;;;;;;;;;;;19.89;40.56;103012.53;4967004;28;19921;-71
2023/04/04 06:44:10;;;;;;;;;;;;;;;19.89;40.08;103009.81;4970680;28;20367;-71
2023/04/04 06:46:36;;;;;;;;;;;;;;;19.91;39.57;103009.69;4957650;28;19944;-71
2023/04/04 06:49:01;;;;;;;;;;;;;;;19.89;39.60;103009.81;4974806;28;20331;-71
2023/04/04 06:51:26;;;;;;;;;;;;;;;19.91;39.27;103020.47;4966750;28;19925;-71
2023/04/04 06:53:51;;;;;;;;;;;;;;;19.91;38.90;103015.94;4960556;28;19926;-72
2023/04/04 06:56:17;;;;;;;;;;;;;;;19.91;39.04;103005.13;4975223;28;19917;-71
2023/04/04 06:58:42;;;;;;;;;;;;;;;19.92;38.54;103004.19;4968035;28;19914;-72
2023/04/04 07:01:07;;;;;;;;;;;;;;;19.93;38.51;103016.69;4968789;28;19910;-72
2023/04/04 07:03:32;;;;;;;;;;;;;;;19.94;38.41;103013.00;4964298;28;19925;-72
2023/04/04 07:05:57;;;;;;;;;;;;;;;19.97;38.11;103009.22;4966670;28;19948;-71
2023/04/04 07:08:22;;;;;;;;;;;;;;;19.98;38.13;103011.78;4962128;28;19943;-72
2023/04/04 07:10:48;;;;;;;;;;;;;;;20.00;37.75;103008.94;4968531;28;19950;-72
2023/04/04 07:13:13;;;;;;;;;;;;;;;20.02;37.57;103015.09;4966509;28;19961;-73
2023/04/04 07:15:38;;;;;;;;;;;;;;;20.05;37.51;103000.47;4965182;28;20355;-77
2023/04/04 07:18:03;;;;;;;;;;;;;;;20.08;37.40;103008.31;4975256;28;20044;-76
2023/04/04 07:20:29;;;;;;;;;;;;;;;20.18;38.55;103012.00;4958739;28;20196;-69
2023/04/04 07:22:54;;;;;;;;;;;;;;;20.22;37.43;103008.91;4976457;28;20126;-69
2023/04/04 07:25:19;;;;;;;;;;;;;;;20.27;37.17;103005.84;4961408;28;19938;-68
2023/04/04 07:27:45;;;;;;;;;;;;;;;20.31;36.80;103011.84;4964084;28;20017;-69
2023/04/04 07:30:10;;;;;;;;;;;;;;;20.35;36.33;103016.88;4969199;28;19910;-68
2023/04/04 07:32:37;;;;;;;;;;;;;;;20.38;36.25;103013.03;4965215;28;19911;-68
2023/04/04 07:35:03;;;;;;;;;;;;;;;20.37;36.33;103004.06;4963608;28;19946;-68
2023/04/04 07:37:29;;;;;;;;;;;;;;;20.40;36.40;103008.38;4970336;28;19918;-69
2023/04/04 07:39:54;;;;;;;;;;;;;;;20.39;36.01;103007.53;4965171;28;19914;-71
2023/04/04 07:42:22;;;;;;;;;;;;;;;20.40;36.17;103005.66;4963592;28;19939;-70
2023/04/04 07:44:50;;;;;;;;;;;;;;;20.40;36.22;103009.22;4973142;28;19915;-66
2023/04/04 07:47:15;;;;;;;;;;;;;;;20.40;36.19;103003.81;4955638;28;19926;-70
2023/04/04 07:49:41;;;;;;;;;;;;;;;20.41;36.17;103005.53;4972331;28;19918;-71
2023/04/04 07:52:06;;;;;;;;;;;;;;;20.42;36.42;103007.25;4967365;28;19922;-70
2023/04/04 07:54:31;;;;;;;;;;;;;;;20.42;36.52;102999.13;4961944;28;19917;-71
2023/04/04 07:56:56;;;;;;;;;;;;;;;20.44;36.33;103010.69;4971815;28;19910;-73
2023/04/04 07:59:21;;;;;;;;;;;;;;;20.45;36.66;103004.28;4964599;28;19918;-69
2023/04/04 08:01:46;;;;;;;;;;;;;;;20.46;36.28;103003.28;4964116;28;19922;-73
2023/04/04 08:04:12;;;;;;;;;;;;;;;20.49;36.43;103006.78;4964916;28;19918;-68
2023/04/04 08:06:37;;;;;;;;;;;;;;;20.50;36.61;103000.38;4968360;28;19922;-72
2023/04/04 08:09:03;;;;;;;;;;;;;;;20.09;36.54;102916.38;4961117;28;19962;-73
2023/04/04 08:11:29;;;;;;;;;;;;;;;20.57;36.88;102999.75;4971410;28;19981;-73
2023/04/04 08:13:54;;;;;;;;;;;;;;;20.60;36.67;102996.78;4960557;28;19914;-72
2023/04/04 08:16:19;;;;;;;;;;;;;;;20.64;36.66;102998.22;4966898;28;19917;-72
2023/04/04 08:18:45;;;;;;;;;;;;;;;20.69;36.65;102995.16;4967569;28;20293;-74
2023/04/04 08:21:10;;;;;;;;;;;;;;;20.71;36.69;103002.13;4959130;28;19910;-73
2023/04/04 08:23:35;;;;;;;;;;;;;;;20.76;36.85;103000.88;4970902;28;19926;-68
2023/04/04 08:26:01;;;;;;;;;;;;;;;20.79;36.91;102998.78;4962602;28;19918;-68
2023/04/04 08:28:26;;;;;;;;;;;;;;;20.82;36.79;103000.38;4964292;28;19910;-73
2023/04/04 08:30:53;;;;;;;;;;;;;;;20.85;36.59;103000.09;4966310;28;20001;-72
2023/04/04 08:33:18;;;;;;;;;;;;;;;20.87;36.66;102996.28;4970035;28;20315;-71
2023/04/04 08:35:43;;;;;;;;;;;;;;;20.91;36.30;102996.88;4959855;28;19917;-71
2023/04/04 08:38:08;;;;;;;;;;;;;;;20.93;36.30;102994.88;4971004;28;19949;-74
2023/04/04 08:40:33;;;;;;;;;;;;;;;20.96;36.23;102994.63;4964361;28;19922;-74
2023/04/04 08:42:58;;;;;;;;;;;;;;;20.98;36.28;102987.22;4969485;28;19917;-72
2023/04/04 08:45:24;;;;;;;;;;;;;;;21.01;36.35;102992.38;4971957;28;19974;-72
2023/04/04 08:47:49;;;;;;;;;;;;;;;21.04;36.01;102988.56;4956724;28;19911;-72
2023/04/04 08:50:14;;;;;;;;;;;;;;;21.07;36.02;102988.28;4972310;28;19942;-73
2023/04/04 08:52:40;;;;;;;;;;;;;;;21.09;36.17;102987.19;4975515;28;19918;-74
2023/04/04 08:55:07;;;;;;;;;;;;;;;21.13;36.18;102980.50;4967593;28;19961;-73
2023/04/04 08:57:32;;;;;;;;;;;;;;;21.15;36.19;102978.53;4970614;28;19919;-70
2023/04/04 08:59:57;;;;;;;;;;;;;;;21.19;35.94;102984.53;4969212;28;19917;-70
2023/04/04 09:02:25;;;;;;;;;;;;;;;21.21;35.60;102986.13;4964545;28;19914;-70
2023/04/04 09:04:51;;;;;;;;;;;;;;;21.24;35.61;102982.28;4970195;28;20255;-71
2023/04/04 09:07:16;;;;;;;;;;;;;;;21.26;35.60;102980.31;4970742;28;19999;-69
2023/04/04 09:09:44;;;;;;;;;;;;;;;21.30;35.43;102978.19;4972292;28;19914;-71
2023/04/04 09:12:09;;;;;;;;;;;;;;;21.34;35.32;102982.38;4986249;28;19910;-69
2023/04/04 09:14:36;;;;;;;;;;;;;;;21.37;35.14;102971.28;4963262;28;19960;-70
2023/04/04 09:17:01;;;;;;;;;;;;;;;21.39;34.89;102980.97;4973516;28;19929;-71
2023/04/04 09:19:27;;;;;;;;;;;;;;;21.42;34.91;102974.44;4969261;28;19917;-70
2023/04/04 09:21:52;;;;;;;;;;;;;;;21.45;34.82;102979.56;4963868;28;20425;-71
2023/04/04 09:24:17;;;;;;;;;;;;;;;21.46;34.65;102971.31;4971320;28;19981;-70
2023/04/04 09:26:52;;;;;;;;;;;;;;;21.50;34.75;102973.78;4964162;28;20001;-71
2023/04/04 09:29:18;;;;;;;;;;;;;;;21.53;34.69;102970.78;4964226;28;19921;-71
2023/04/04 09:31:45;;;;;;;;;;;;;;;21.56;34.34;102967.81;4967473;28;19948;-70
2023/04/04 09:34:10;;;;;;;;;;;;;;;21.59;34.66;102965.69;4973926;28;20008;-72
2023/04/04 09:36:36;;;;;;;;;;;;;;;21.63;34.40;102964.41;4963769;28;19991;-70
2023/04/04 09:39:01;;;;;;;;;;;;;;;21.68;34.31;102969.41;4974669;28;19918;-73
2023/04/04 09:41:26;;;;;;;;;;;;;;;21.73;34.44;102969.00;4972466;28;19917;-72
2023/04/04 09:43:51;;;;;;;;;;;;;;;21.75;34.37;102970.59;4969263;28;20042;-72
2023/04/04 09:46:20;;;;;;;;;;;;;;;21.80;34.43;102962.91;4971700;28;19919;-72
2023/04/04 09:48:51;;;;;;;;;;;;;;;21.83;34.34;102964.47;4961775;28;19922;-71
2023/04/04 09:51:17;;;;;;;;;;;;;;;21.86;34.27;102969.59;4970602;28;19910;-72
2023/04/04 09:53:42;;;;;;;;;;;;;;;21.90;33.98;102966.47;4962760;28;19998;-67
2023/04/04 09:56:07;;;;;;;;;;;;;;;21.93;34.08;102960.78;4967274;28;19964;-71
2023/04/04 09:58:35;;;;;;;;;;;;;;;21.96;34.21;102962.34;4971416;28;20005;-73
2023/04/04 10:01:01;;;;;;;;;;;;;;;22.02;34.08;102971.78;4970557;28;19914;-73
2023/04/04 10:03:27;;;;;;;;;;;;;;;22.05;33.96;102956.13;4958022;28;20378;-73
2023/04/04 10:05:56;;;;;;;;;;;;;;;22.10;33.95;102961.13;4971124;28;19965;-73
2023/04/04 10:08:22;;;;;;;;;;;;;;;22.13;34.04;102955.44;4966576;28;19914;-72
2023/04/04 10:10:48;;;;;;;;;;;;;;;22.16;34.04;102956.00;4964076;28;19944;-72
2023/04/04 10:13:13;;;;;;;;;;;;;;;22.19;33.64;102950.31;4973598;28;19955;-71
2023/04/04 10:15:38;;;;;;;;;;;;;;;22.23;34.08;102947.34;4964335;28;19929;-73
2023/04/04 10:18:03;;;;;;;;;;;;;;;22.27;33.96;102941.50;4967868;28;19942;-71
2023/04/04 10:20:30;;;;;;;;;;;;;;;22.31;34.09;102942.91;4969987;28;19922;-72
2023/04/04 10:22:55;;;;;;;;;;;;;;;22.38;33.85;102948.59;4963978;28;20009;-69
2023/04/04 10:25:21;;;;;;;;;;;;;;;22.43;33.70;102946.34;4966465;28;19985;-72
2023/04/04 10:27:46;;;;;;;;;;;;;;;22.41;33.22;102946.47;4969846;28;19945;-73
2023/04/04 10:30:12;;;;;;;;;;;;;;;22.43;33.50;102943.63;4961494;28;19917;-67
2023/04/04 10:32:48;;;;;;;;;;;;;;;22.45;33.71;102947.06;4972169;28;19911;-70
2023/04/04 10:35:13;;;;;;;;;;;;;;;22.45;33.65;102941.63;4972208;28;19914;-72
2023/04/04 10:37:46;;;;;;;;;;;;;;;22.45;33.69;102936.22;4957398;28;19982;-73
2023/04/04 10:40:11;;;;;;;;;;;;;;;22.42;33.50;102934.63;4975381;28;19914;-72
2023/04/04 10:42:37;;;;;;;;;;;;;;;22.45;33.82;102928.94;4961492;28;19921;-72
2023/04/04 10:45:03;;;;;;;;;;;;;;;22.49;33.48;102934.06;4972238;28;20002;-68
2023/04/04 10:47:28;;;;;;;;;;;;;;;22.53;33.35;102928.22;4967176;28;19918;-72
2023/04/04 10:49:53;;;;;;;;;;;;;;;22.55;33.61;102919.94;4963293;28;19914;-72
2023/04/04 10:52:19;;;;;;;;;;;;;;;22.57;33.58;102916.09;4966159;28;19933;-72
2023/04/04 10:54:44;;;;;;;;;;;;;;;22.62;33.28;102912.94;4970535;28;19910;-72
2023/04/04 10:57:09;;;;;;;;;;;;;;;22.66;33.41;102917.06;4963354;28;19918;-71
2023/04/04 10:59:54;;;;;;;;;;;;;;;22.68;33.17;102924.06;4967643;28;20646;-71
2023/04/04 11:02:20;;;;;;;;;;;;;;;22.68;33.31;102917.75;4966600;28;19911;-71
2023/04/04 11:04:45;;;;;;;;;;;;;;;22.69;33.00;102916.78;4967291;28;19922;-71
2023/04/04 11:07:10;;;;;;;;;;;;;;;22.70;33.11;102919.34;4976235;28;19914;-71
2023/04/04 11:10:05;;;;;;;;;;;;;;;22.66;33.02;102919.78;4961871;28;19917;-71
2023/04/04 11:12:33;;;;;;;;;;;;;;;22.55;33.25;102915.34;4967314;28;19910;-72
2023/04/04 11:15:01;;;;;;;;;;;;;;;22.46;33.86;102908.94;4966082;28;20053;-72
2023/04/04 11:17:45;;;;;;;;;;;;;;;22.42;33.72;102909.38;4963206;28;19915;-71
2023/04/04 11:20:10;;;;;;;;;;;;;;;22.40;33.71;102904.13;4967063;28;19910;-71
2023/04/04 11:22:35;;;;;;;;;;;;;;;22.35;34.02;102897.41;4965304;28;19914;-70
2023/04/04 11:25:20;;;;;;;;;;;;;;;22.30;33.91;102900.56;4961726;28;19918;-71
2023/04/04 11:27:45;;;;;;;;;;;;;;;22.25;34.13;102897.41;4967146;28;19996;-71
2023/04/04 11:30:12;;;;;;;;;;;;;;;22.23;34.28;102896.72;4969273;28;19926;-70
2023/04/04 11:32:41;;;;;;;;;;;;;;;22.26;34.46;102892.84;4960563;28;19910;-71
2023/04/04 11:35:07;;;;;;;;;;;;;;;22.27;34.58;102881.03;4965856;28;19990;-71
2023/04/04 11:37:33;;;;;;;;;;;;;;;22.28;34.76;102880.00;4956921;28;19922;-71
2023/04/04 11:39:59;;;;;;;;;;;;;;;22.32;34.34;102870.59;4975307;28;19914;-71
2023/04/04 11:42:24;;;;;;;;;;;;;;;22.30;34.49;102875.28;4961752;28;20364;-72
2023/04/04 11:44:49;;;;;;;;;;;;;;;22.39;34.61;102879.88;4965318;28;19973;-71
2023/04/04 11:47:17;;;;;;;;;;;;;;;22.38;34.63;102876.28;4969269;28;19915;-71
2023/04/04 11:49:44;;;;;;;;;;;;;;;22.34;34.77;102866.72;4964629;28;20029;-71
2023/04/04 11:52:10;;;;;;;;;;;;;;;22.30;34.78;102875.28;4960862;28;20589;-71
2023/04/04 11:54:36;;;;;;;;;;;;;;;22.25;35.13;102864.88;4966459;28;19956;-71
2023/04/04 11:57:02;;;;;;;;;;;;;;;22.24;35.06;102862.31;4970697;28;19914;-71
2023/04/04 11:59:27;;;;;;;;;;;;;;;22.22;35.36;102862.50;4960852;28;19919;-71
2023/04/04 12:01:52;;;;;;;;;;;;;;;22.21;35.34;102867.03;4974538;28;19914;-70
2023/04/04 12:04:18;;;;;;;;;;;;;;;22.26;35.21;102853.06;4958310;28;20378;-70
2023/04/04 12:06:45;;;;;;;;;;;;;;;22.26;35.54;102849.47;4967158;28;19911;-70
2023/04/04 12:09:16;;;;;;;;;;;;;;;22.29;35.22;102849.19;4966285;28;19990;-72
2023/04/04 12:11:41;;;;;;;;;;;;;;;22.29;35.47;102850.06;4959940;28;19961;-71
2023/04/04 12:14:13;;;;;;;;;;;;;;;22.26;35.46;102849.47;4970075;28;19910;-71
2023/04/04 12:16:39;;;;;;;;;;;;;;;22.25;35.75;102840.50;4963575;28;19918;-71
2023/04/04 12:19:04;;;;;;;;;;;;;;;22.25;35.78;102836.94;4961704;28;19961;-72
2023/04/04 12:21:32;;;;;;;;;;;;;;;22.24;35.69;102832.53;4965317;28;19910;-72
2023/04/04 12:23:57;;;;;;;;;;;;;;;22.25;35.93;102826.09;4968418;28;19925;-71
2023/04/04 12:26:23;;;;;;;;;;;;;;;22.24;35.81;102825.25;4967434;28;19910;-72
2023/04/04 12:28:49;;;;;;;;;;;;;;;22.27;34.80;102827.69;4972918;28;19914;-70